sensor_id;sensor_type;location;lat;lon;timestamp;pressure;altitude;pressure_sealevel;temperature;humidity
9839;BME280;4958;48.150;11.506;2023-05-25T00:01:38;95867.91;;;14.95;54.69
9839;BME280;4958;48.150;11.506;2023-05-25T00:04:08;95871.28;;;15.02;54.98
9839;BME280;4958;48.150;11.506;2023-05-25T00:06:35;95864.72;;;15.06;54.63
9839;BME280;4958;48.150;11.506;2023-05-25T00:09:05;95859.75;;;15.11;54.23
9839;BME280;4958;48.150;11.506;2023-05-25T00:11:31;95862.13;;;15.06;54.37
9839;BME280;4958;48.150;11.506;2023-05-25T00:13:58;95864.91;;;15.05;54.21
9839;BME280;4958;48.150;11.506;2023-05-25T00:16:25;95872.28;;;14.95;54.04
9839;BME280;4958;48.150;11.506;2023-05-25T00:18:53;95874.88;;;14.81;53.84
9839;BME280;4958;48.150;11.506;2023-05-25T00:21:21;95869.88;;;14.86;54.77
9839;BME280;4958;48.150;11.506;2023-05-25T00:23:48;95872.81;;;14.70;54.81
9839;BME280;4958;48.150;11.506;2023-05-25T00:26:15;95877.41;;;14.68;54.51
9839;BME280;4958;48.150;11.506;2023-05-25T00:28:41;95859.44;;;14.67;54.80
9839;BME280;4958;48.150;11.506;2023-05-25T00:31:07;95861.28;;;14.79;54.62
9839;BME280;4958;48.150;11.506;2023-05-25T00:33:34;95858.47;;;14.74;54.98
9839;BME280;4958;48.150;11.506;2023-05-25T00:36:02;95856.50;;;14.76;55.05
9839;BME280;4958;48.150;11.506;2023-05-25T00:38:29;95852.91;;;14.77;54.56
9839;BME280;4958;48.150;11.506;2023-05-25T00:40:55;95863.69;;;14.81;54.99
9839;BME280;4958;48.150;11.506;2023-05-25T00:43:22;95858.91;;;14.84;54.85
9839;BME280;4958;48.150;11.506;2023-05-25T00:45:49;95855.13;;;14.87;55.01
9839;BME280;4958;48.150;11.506;2023-05-25T00:48:16;95840.75;;;14.84;54.98
9839;BME280;4958;48.150;11.506;2023-05-25T00:50:46;95838.16;;;14.78;55.47
9839;BME280;4958;48.150;11.506;2023-05-25T00:53:13;95842.72;;;14.69;55.93
9839;BME280;4958;48.150;11.506;2023-05-25T00:55:43;95846.69;;;14.65;55.79
9839;BME280;4958;48.150;11.506;2023-05-25T00:58:12;95845.91;;;14.71;55.55
9839;BME280;4958;48.150;11.506;2023-05-25T01:00:39;95840.72;;;14.71;55.52
9839;BME280;4958;48.150;11.506;2023-05-25T01:03:11;95846.94;;;14.83;55.69
9839;BME280;4958;48.150;11.506;2023-05-25T01:05:44;95852.72;;;14.79;55.41
9839;BME280;4958;48.150;11.506;2023-05-25T01:08:15;95850.31;;;14.84;55.18
9839;BME280;4958;48.150;11.506;2023-05-25T01:10:44;95848.13;;;14.74;56.21
9839;BME280;4958;48.150;11.506;2023-05-25T01:13:16;95852.09;;;14.70;56.26
9839;BME280;4958;48.150;11.506;2023-05-25T01:15:44;95849.06;;;14.67;56.27
9839;BME280;4958;48.150;11.506;2023-05-25T01:18:13;95850.69;;;14.68;56.33
9839;BME280;4958;48.150;11.506;2023-05-25T01:24:13;95852.22;;;14.49;57.08
9839;BME280;4958;48.150;11.506;2023-05-25T01:26:53;95840.25;;;14.48;57.27
9839;BME280;4958;48.150;11.506;2023-05-25T01:29:22;95847.88;;;14.56;57.66
9839;BME280;4958;48.150;11.506;2023-05-25T01:31:50;95844.50;;;14.69;56.72
9839;BME280;4958;48.150;11.506;2023-05-25T01:34:18;95841.34;;;14.86;56.86
9839;BME280;4958;48.150;11.506;2023-05-25T01:36:46;95841.75;;;14.83;56.44
9839;BME280;4958;48.150;11.506;2023-05-25T01:39:14;95846.72;;;14.78;56.85
9839;BME280;4958;48.150;11.506;2023-05-25T01:41:40;95849.69;;;14.69;57.32
9839;BME280;4958;48.150;11.506;2023-05-25T01:44:07;95849.09;;;14.73;57.20
9839;BME280;4958;48.150;11.506;2023-05-25T01:46:36;95848.94;;;14.81;57.63
9839;BME280;4958;48.150;11.506;2023-05-25T01:49:11;95856.50;;;14.76;57.53
9839;BME280;4958;48.150;11.506;2023-05-25T01:51:46;95864.03;;;14.65;58.28
9839;BME280;4958;48.150;11.506;2023-05-25T01:54:18;95870.81;;;14.66;58.44
9839;BME280;4958;48.150;11.506;2023-05-25T01:56:48;95867.25;;;14.73;58.37
9839;BME280;4958;48.150;11.506;2023-05-25T01:59:19;95865.28;;;14.75;58.54
9839;BME280;4958;48.150;11.506;2023-05-25T02:01:47;95862.88;;;14.74;59.12
9839;BME280;4958;48.150;11.506;2023-05-25T02:04:16;95860.44;;;14.66;59.98
9839;BME280;4958;48.150;11.506;2023-05-25T02:06:42;95854.06;;;14.62;60.18
9839;BME280;4958;48.150;11.506;2023-05-25T02:09:09;95852.66;;;14.59;61.04
9839;BME280;4958;48.150;11.506;2023-05-25T02:11:36;95857.66;;;14.61;61.71
9839;BME280;4958;48.150;11.506;2023-05-25T02:14:03;95853.19;;;14.48;62.02
9839;BME280;4958;48.150;11.506;2023-05-25T02:16:29;95850.00;;;14.46;62.70
9839;BME280;4958;48.150;11.506;2023-05-25T02:18:56;95847.22;;;14.41;63.46
9839;BME280;4958;48.150;11.506;2023-05-25T02:21:23;95844.81;;;14.46;63.19
9839;BME280;4958;48.150;11.506;2023-05-25T02:23:49;95844.44;;;14.42;63.41
9839;BME280;4958;48.150;11.506;2023-05-25T02:26:16;95847.63;;;14.51;63.23
9839;BME280;4958;48.150;11.506;2023-05-25T02:28:44;95846.25;;;14.55;63.71
9839;BME280;4958;48.150;11.506;2023-05-25T02:31:10;95838.47;;;14.48;64.45
9839;BME280;4958;48.150;11.506;2023-05-25T02:33:36;95841.25;;;14.47;65.02
9839;BME280;4958;48.150;11.506;2023-05-25T02:36:05;95834.88;;;14.43;65.73
9839;BME280;4958;48.150;11.506;2023-05-25T02:38:32;95835.06;;;14.48;66.33
9839;BME280;4958;48.150;11.506;2023-05-25T02:40:58;95844.09;;;14.59;65.92
9839;BME280;4958;48.150;11.506;2023-05-25T02:43:25;95843.44;;;14.50;67.92
9839;BME280;4958;48.150;11.506;2023-05-25T02:45:53;95827.56;;;14.60;67.31
9839;BME280;4958;48.150;11.506;2023-05-25T03:11:53;95838.72;;;14.26;77.32
9839;BME280;4958;48.150;11.506;2023-05-25T03:14:22;95839.72;;;14.25;77.07
9839;BME280;4958;48.150;11.506;2023-05-25T03:16:48;95840.47;;;14.12;79.21
9839;BME280;4958;48.150;11.506;2023-05-25T03:19:15;95838.13;;;14.17;78.90
9839;BME280;4958;48.150;11.506;2023-05-25T03:21:46;95842.88;;;14.13;79.79
9839;BME280;4958;48.150;11.506;2023-05-25T03:24:12;95845.69;;;14.25;79.25
9839;BME280;4958;48.150;11.506;2023-05-25T03:26:39;95845.09;;;14.16;80.27
9839;BME280;4958;48.150;11.506;2023-05-25T03:29:06;95847.25;;;14.13;80.18
9839;BME280;4958;48.150;11.506;2023-05-25T03:31:33;95852.66;;;14.18;79.52
9839;BME280;4958;48.150;11.506;2023-05-25T03:34:01;95852.47;;;14.20;79.49
9839;BME280;4958;48.150;11.506;2023-05-25T03:36:27;95851.31;;;14.29;79.30
9839;BME280;4958;48.150;11.506;2023-05-25T03:38:55;95846.97;;;14.36;78.23
9839;BME280;4958;48.150;11.506;2023-05-25T03:41:21;95846.72;;;14.31;79.23
9839;BME280;4958;48.150;11.506;2023-05-25T03:43:48;95852.75;;;14.38;78.70
9839;BME280;4958;48.150;11.506;2023-05-25T03:46:16;95855.91;;;14.33;78.62
9839;BME280;4958;48.150;11.506;2023-05-25T03:48:44;95856.88;;;14.26;79.17
9839;BME280;4958;48.150;11.506;2023-05-25T03:51:11;95860.44;;;14.25;78.97
9839;BME280;4958;48.150;11.506;2023-05-25T03:53:37;95864.47;;;14.34;78.74
9839;BME280;4958;48.150;11.506;2023-05-25T03:56:04;95853.94;;;14.35;78.36
9839;BME280;4958;48.150;11.506;2023-05-25T03:58:30;95857.88;;;14.31;78.38
9839;BME280;4958;48.150;11.506;2023-05-25T04:00:57;95859.44;;;14.26;78.98
9839;BME280;4958;48.150;11.506;2023-05-25T04:03:25;95857.47;;;14.21;79.07
9839;BME280;4958;48.150;11.506;2023-05-25T04:05:52;95863.41;;;14.15;79.61
9839;BME280;4958;48.150;11.506;2023-05-25T04:08:19;95868.63;;;14.22;79.56
9839;BME280;4958;48.150;11.506;2023-05-25T04:10:46;95860.47;;;14.31;79.34
9839;BME280;4958;48.150;11.506;2023-05-25T04:13:13;95863.06;;;14.31;78.61
9839;BME280;4958;48.150;11.506;2023-05-25T04:15:39;95877.00;;;14.30;78.94
9839;BME280;4958;48.150;11.506;2023-05-25T04:18:06;95864.00;;;14.17;79.47
9839;BME280;4958;48.150;11.506;2023-05-25T04:20:34;95868.00;;;14.20;79.73
9839;BME280;4958;48.150;11.506;2023-05-25T04:23:00;95876.59;;;14.27;79.38
9839;BME280;4958;48.150;11.506;2023-05-25T04:25:27;95883.56;;;14.26;79.63
9839;BME280;4958;48.150;11.506;2023-05-25T04:27:53;95884.81;;;14.37;79.62
9839;BME280;4958;48.150;11.506;2023-05-25T04:30:20;95889.47;;;14.48;79.00
9839;BME280;4958;48.150;11.506;2023-05-25T04:32:47;95888.16;;;14.65;78.00
9839;BME280;4958;48.150;11.506;2023-05-25T04:38:37;95874.91;;;14.47;79.00
9839;BME280;4958;48.150;11.506;2023-05-25T04:47:46;95883.72;;;14.52;79.75
9839;BME280;4958;48.150;11.506;2023-05-25T04:50:14;95870.78;;;14.52;79.79
9839;BME280;4958;48.150;11.506;2023-05-25T04:52:40;95877.59;;;14.67;79.29
9839;BME280;4958;48.150;11.506;2023-05-25T05:18:40;95917.81;;;14.56;81.41
9839;BME280;4958;48.150;11.506;2023-05-25T05:21:07;95903.84;;;14.50;81.41
9839;BME280;4958;48.150;11.506;2023-05-25T05:23:33;95906.09;;;14.67;80.18
9839;BME280;4958;48.150;11.506;2023-05-25T05:26:00;95909.50;;;14.67;80.11
9839;BME280;4958;48.150;11.506;2023-05-25T05:28:29;95906.47;;;14.64;80.24
9839;BME280;4958;48.150;11.506;2023-05-25T05:30:56;95908.09;;;14.65;79.67
9839;BME280;4958;48.150;11.506;2023-05-25T05:33:22;95909.28;;;14.69;79.64
9839;BME280;4958;48.150;11.506;2023-05-25T05:35:50;95913.50;;;14.70;80.38
9839;BME280;4958;48.150;11.506;2023-05-25T05:38:20;95917.25;;;14.67;80.01
9839;BME280;4958;48.150;11.506;2023-05-25T05:40:48;95914.09;;;14.72;80.13
9839;BME280;4958;48.150;11.506;2023-05-25T05:43:24;95922.91;;;14.77;80.47
9839;BME280;4958;48.150;11.506;2023-05-25T05:45:55;95921.09;;;14.78;79.75
9839;BME280;4958;48.150;11.506;2023-05-25T05:48:23;95917.34;;;14.80;79.87
9839;BME280;4958;48.150;11.506;2023-05-25T05:50:51;95919.13;;;14.86;79.96
9839;BME280;4958;48.150;11.506;2023-05-25T05:53:18;95923.50;;;14.86;79.74
9839;BME280;4958;48.150;11.506;2023-05-25T06:02:52;95927.47;;;14.75;79.81
9839;BME280;4958;48.150;11.506;2023-05-25T06:05:26;95925.47;;;14.71;80.80
9839;BME280;4958;48.150;11.506;2023-05-25T06:07:54;95932.41;;;14.64;81.26
9839;BME280;4958;48.150;11.506;2023-05-25T06:17:07;95927.81;;;14.59;81.77
9839;BME280;4958;48.150;11.506;2023-05-25T06:19:35;95928.38;;;14.55;81.96
9839;BME280;4958;48.150;11.506;2023-05-25T06:22:04;95935.78;;;14.58;82.31
9839;BME280;4958;48.150;11.506;2023-05-25T06:24:36;95941.19;;;14.69;81.71
9839;BME280;4958;48.150;11.506;2023-05-25T06:27:11;95940.22;;;14.70;81.93
9839;BME280;4958;48.150;11.506;2023-05-25T06:29:38;95941.38;;;14.68;81.32
9839;BME280;4958;48.150;11.506;2023-05-25T06:32:05;95939.63;;;14.75;81.46
9839;BME280;4958;48.150;11.506;2023-05-25T06:34:34;95934.06;;;14.78;81.20
9839;BME280;4958;48.150;11.506;2023-05-25T06:37:05;95940.44;;;14.82;81.48
9839;BME280;4958;48.150;11.506;2023-05-25T06:39:31;95938.06;;;14.80;80.56
9839;BME280;4958;48.150;11.506;2023-05-25T06:42:02;95948.63;;;14.85;81.17
9839;BME280;4958;48.150;11.506;2023-05-25T06:44:28;95952.47;;;14.96;80.34
9839;BME280;4958;48.150;11.506;2023-05-25T06:47:00;95948.72;;;15.05;79.87
9839;BME280;4958;48.150;11.506;2023-05-25T06:49:27;95955.28;;;15.01;79.99
9839;BME280;4958;48.150;11.506;2023-05-25T06:51:54;95950.28;;;14.93;78.99
9839;BME280;4958;48.150;11.506;2023-05-25T06:54:20;95946.09;;;14.92;79.33
9839;BME280;4958;48.150;11.506;2023-05-25T06:56:47;95948.69;;;14.92;79.50
9839;BME280;4958;48.150;11.506;2023-05-25T06:59:15;95957.03;;;14.88;79.99
9839;BME280;4958;48.150;11.506;2023-05-25T07:01:42;95964.41;;;14.91;80.10
9839;BME280;4958;48.150;11.506;2023-05-25T07:04:09;95961.47;;;15.00;79.61
9839;BME280;4958;48.150;11.506;2023-05-25T07:06:35;95957.50;;;15.11;79.62
9839;BME280;4958;48.150;11.506;2023-05-25T07:09:02;95953.09;;;15.05;79.09
9839;BME280;4958;48.150;11.506;2023-05-25T07:11:28;95955.53;;;15.13;78.76
9839;BME280;4958;48.150;11.506;2023-05-25T07:13:55;95964.91;;;15.20;78.03
9839;BME280;4958;48.150;11.506;2023-05-25T07:16:23;95967.47;;;15.07;79.20
9839;BME280;4958;48.150;11.506;2023-05-25T07:18:50;95960.50;;;15.08;79.24
9839;BME280;4958;48.150;11.506;2023-05-25T07:21:17;95963.50;;;15.11;78.50
9839;BME280;4958;48.150;11.506;2023-05-25T07:23:43;95964.31;;;15.18;78.30
9839;BME280;4958;48.150;11.506;2023-05-25T07:26:10;95959.16;;;15.32;77.63
9839;BME280;4958;48.150;11.506;2023-05-25T07:28:36;95953.16;;;15.31;77.00
9839;BME280;4958;48.150;11.506;2023-05-25T07:31:03;95960.94;;;15.18;77.97
9839;BME280;4958;48.150;11.506;2023-05-25T07:33:34;95968.69;;;15.11;78.12
9839;BME280;4958;48.150;11.506;2023-05-25T07:36:00;95974.44;;;15.07;78.48
9839;BME280;4958;48.150;11.506;2023-05-25T07:38:27;95978.44;;;15.09;78.09
9839;BME280;4958;48.150;11.506;2023-05-25T07:40:53;95978.84;;;15.06;77.84
9839;BME280;4958;48.150;11.506;2023-05-25T07:43:20;95988.03;;;15.09;78.47
9839;BME280;4958;48.150;11.506;2023-05-25T07:45:46;95986.25;;;15.16;78.09
9839;BME280;4958;48.150;11.506;2023-05-25T07:48:13;95981.09;;;15.29;77.57
9839;BME280;4958;48.150;11.506;2023-05-25T07:50:41;95991.91;;;15.46;76.89
9839;BME280;4958;48.150;11.506;2023-05-25T07:53:07;95981.53;;;15.46;77.38
9839;BME280;4958;48.150;11.506;2023-05-25T07:55:34;95991.50;;;15.36;76.57
9839;BME280;4958;48.150;11.506;2023-05-25T07:58:00;95986.50;;;15.34;77.06
9839;BME280;4958;48.150;11.506;2023-05-25T08:00:29;95988.72;;;15.44;76.56
9839;BME280;4958;48.150;11.506;2023-05-25T08:02:55;95992.50;;;15.41;76.70
9839;BME280;4958;48.150;11.506;2023-05-25T08:05:22;95996.88;;;15.41;76.57
9839;BME280;4958;48.150;11.506;2023-05-25T08:07:49;95996.91;;;15.47;77.11
9839;BME280;4958;48.150;11.506;2023-05-25T08:10:17;95989.09;;;15.41;76.24
9839;BME280;4958;48.150;11.506;2023-05-25T08:12:44;96003.69;;;15.35;76.76
9839;BME280;4958;48.150;11.506;2023-05-25T08:15:10;96010.66;;;15.41;76.50
9839;BME280;4958;48.150;11.506;2023-05-25T08:17:38;96016.66;;;15.35;76.54
9839;BME280;4958;48.150;11.506;2023-05-25T08:20:07;96007.88;;;15.43;76.12
9839;BME280;4958;48.150;11.506;2023-05-25T08:22:34;96013.88;;;15.43;75.56
9839;BME280;4958;48.150;11.506;2023-05-25T08:25:03;96005.31;;;15.49;76.60
9839;BME280;4958;48.150;11.506;2023-05-25T08:27:30;96011.72;;;15.60;77.12
9839;BME280;4958;48.150;11.506;2023-05-25T08:29:57;96016.72;;;15.55;76.33
9839;BME280;4958;48.150;11.506;2023-05-25T08:32:23;96015.06;;;15.47;76.87
9839;BME280;4958;48.150;11.506;2023-05-25T08:34:50;96015.50;;;15.51;76.49
9839;BME280;4958;48.150;11.506;2023-05-25T08:37:16;96023.25;;;15.38;77.07
9839;BME280;4958;48.150;11.506;2023-05-25T08:39:44;96016.88;;;15.47;76.47
9839;BME280;4958;48.150;11.506;2023-05-25T08:42:12;96007.91;;;15.49;77.00
9839;BME280;4958;48.150;11.506;2023-05-25T08:44:38;96029.06;;;15.53;76.19
9839;BME280;4958;48.150;11.506;2023-05-25T08:47:06;96022.72;;;15.62;76.58
9839;BME280;4958;48.150;11.506;2023-05-25T08:49:33;96016.91;;;15.53;76.20
9839;BME280;4958;48.150;11.506;2023-05-25T08:52:03;96019.94;;;15.64;76.31
9839;BME280;4958;48.150;11.506;2023-05-25T08:54:33;96026.34;;;15.68;76.81
9839;BME280;4958;48.150;11.506;2023-05-25T08:57:04;96026.53;;;15.66;75.64
9839;BME280;4958;48.150;11.506;2023-05-25T08:59:39;96033.72;;;15.64;75.95
9839;BME280;4958;48.150;11.506;2023-05-25T09:02:30;96035.31;;;15.78;75.73
9839;BME280;4958;48.150;11.506;2023-05-25T09:04:58;96037.91;;;15.78;75.07
9839;BME280;4958;48.150;11.506;2023-05-25T09:07:26;96038.94;;;15.84;74.74
9839;BME280;4958;48.150;11.506;2023-05-25T09:09:54;96046.56;;;15.92;74.74
9839;BME280;4958;48.150;11.506;2023-05-25T09:12:21;96049.75;;;15.87;75.30
9839;BME280;4958;48.150;11.506;2023-05-25T09:14:49;96040.16;;;15.88;75.05
9839;BME280;4958;48.150;11.506;2023-05-25T09:17:16;96040.97;;;15.95;75.07
9839;BME280;4958;48.150;11.506;2023-05-25T09:19:44;96036.94;;;15.99;75.18
9839;BME280;4958;48.150;11.506;2023-05-25T09:22:12;96045.94;;;16.03;74.82
9839;BME280;4958;48.150;11.506;2023-05-25T09:24:53;96039.34;;;16.01;74.42
9839;BME280;4958;48.150;11.506;2023-05-25T09:27:22;96054.53;;;15.91;74.71
9839;BME280;4958;48.150;11.506;2023-05-25T09:29:51;96051.31;;;15.75;75.09
9839;BME280;4958;48.150;11.506;2023-05-25T09:32:18;96059.09;;;15.82;75.73
9839;BME280;4958;48.150;11.506;2023-05-25T09:34:45;96059.34;;;16.00;75.11
9839;BME280;4958;48.150;11.506;2023-05-25T09:37:13;96058.34;;;16.08;75.07
9839;BME280;4958;48.150;11.506;2023-05-25T09:39:41;96076.72;;;16.06;75.29
9839;BME280;4958;48.150;11.506;2023-05-25T09:42:08;96068.75;;;16.28;74.72
9839;BME280;4958;48.150;11.506;2023-05-25T09:44:36;96067.75;;;16.42;74.38
9839;BME280;4958;48.150;11.506;2023-05-25T09:47:05;96072.53;;;16.45;73.49
9839;BME280;4958;48.150;11.506;2023-05-25T09:49:31;96071.16;;;16.42;73.17
9839;BME280;4958;48.150;11.506;2023-05-25T09:51:59;96067.56;;;16.30;73.22
9839;BME280;4958;48.150;11.506;2023-05-25T09:54:26;96067.13;;;16.20;74.36
9839;BME280;4958;48.150;11.506;2023-05-25T09:56:53;96064.94;;;16.17;74.75
9839;BME280;4958;48.150;11.506;2023-05-25T09:59:20;96074.53;;;16.10;74.33
9839;BME280;4958;48.150;11.506;2023-05-25T10:01:49;96061.94;;;16.07;74.03
9839;BME280;4958;48.150;11.506;2023-05-25T10:04:17;96065.53;;;16.19;74.20
9839;BME280;4958;48.150;11.506;2023-05-25T10:06:45;96071.94;;;16.16;73.84
9839;BME280;4958;48.150;11.506;2023-05-25T10:09:23;96072.53;;;16.18;73.71
9839;BME280;4958;48.150;11.506;2023-05-25T10:11:55;96067.53;;;16.17;73.69
9839;BME280;4958;48.150;11.506;2023-05-25T10:14:26;96077.13;;;16.23;73.51
9839;BME280;4958;48.150;11.506;2023-05-25T10:17:00;96077.13;;;16.23;73.78
9839;BME280;4958;48.150;11.506;2023-05-25T10:19:35;96075.94;;;16.19;74.07
9839;BME280;4958;48.150;11.506;2023-05-25T10:22:13;96074.53;;;16.23;73.03
9839;BME280;4958;48.150;11.506;2023-05-25T10:24:52;96081.75;;;16.28;73.54
9839;BME280;4958;48.150;11.506;2023-05-25T10:27:27;96089.75;;;16.26;73.25
9839;BME280;4958;48.150;11.506;2023-05-25T10:29:55;96081.72;;;16.21;73.99
9839;BME280;4958;48.150;11.506;2023-05-25T10:32:31;96073.72;;;16.36;74.08
9839;BME280;4958;48.150;11.506;2023-05-25T10:35:04;96073.75;;;16.42;74.02
9839;BME280;4958;48.150;11.506;2023-05-25T10:37:32;96070.75;;;16.45;73.03
9839;BME280;4958;48.150;11.506;2023-05-25T10:40:00;96072.75;;;16.50;73.06
9839;BME280;4958;48.150;11.506;2023-05-25T10:42:27;96067.75;;;16.48;72.99
9839;BME280;4958;48.150;11.506;2023-05-25T10:44:54;96073.13;;;16.60;72.88
9839;BME280;4958;48.150;11.506;2023-05-25T10:47:22;96074.16;;;16.66;72.65
9839;BME280;4958;48.150;11.506;2023-05-25T10:49:53;96067.13;;;16.86;72.76
9839;BME280;4958;48.150;11.506;2023-05-25T10:52:25;96070.13;;;16.89;71.57
9839;BME280;4958;48.150;11.506;2023-05-25T10:54:54;96070.88;;;16.97;72.18
9839;BME280;4958;48.150;11.506;2023-05-25T10:57:22;96072.50;;;16.98;72.49
9839;BME280;4958;48.150;11.506;2023-05-25T10:59:49;96068.69;;;17.07;71.49
9839;BME280;4958;48.150;11.506;2023-05-25T11:02:16;96067.88;;;17.06;71.87
9839;BME280;4958;48.150;11.506;2023-05-25T11:04:47;96063.47;;;17.07;71.59
9839;BME280;4958;48.150;11.506;2023-05-25T11:07:15;96069.88;;;17.11;71.31
9839;BME280;4958;48.150;11.506;2023-05-25T11:09:56;96071.63;;;17.17;72.58
9839;BME280;4958;48.150;11.506;2023-05-25T11:12:23;96071.44;;;17.18;71.81
9839;BME280;4958;48.150;11.506;2023-05-25T11:15:13;96070.44;;;17.13;70.38
9839;BME280;4958;48.150;11.506;2023-05-25T11:17:45;96080.22;;;17.24;71.45
9839;BME280;4958;48.150;11.506;2023-05-25T11:20:26;96072.22;;;17.19;70.86
9839;BME280;4958;48.150;11.506;2023-05-25T11:22:53;96070.22;;;17.21;71.33
9839;BME280;4958;48.150;11.506;2023-05-25T11:25:41;96070.59;;;17.31;72.36
9839;BME280;4958;48.150;11.506;2023-05-25T11:28:08;96065.75;;;17.41;71.42
9839;BME280;4958;48.150;11.506;2023-05-25T11:30:39;96074.06;;;17.56;70.93
9839;BME280;4958;48.150;11.506;2023-05-25T11:33:10;96065.84;;;17.59;69.27
9839;BME280;4958;48.150;11.506;2023-05-25T11:35:37;96063.03;;;17.61;69.04
9839;BME280;4958;48.150;11.506;2023-05-25T11:38:05;96054.97;;;17.76;69.98
9839;BME280;4958;48.150;11.506;2023-05-25T11:40:32;96055.72;;;17.89;70.42
9839;BME280;4958;48.150;11.506;2023-05-25T11:43:00;96059.06;;;17.97;68.62
9839;BME280;4958;48.150;11.506;2023-05-25T11:45:28;96055.34;;;18.11;69.52
9839;BME280;4958;48.150;11.506;2023-05-25T11:47:56;96063.22;;;18.29;69.07
9839;BME280;4958;48.150;11.506;2023-05-25T11:50:25;96059.34;;;18.38;68.00
9839;BME280;4958;48.150;11.506;2023-05-25T11:52:52;96051.34;;;18.33;67.24
9839;BME280;4958;48.150;11.506;2023-05-25T11:55:31;96046.06;;;18.21;67.60
9839;BME280;4958;48.150;11.506;2023-05-25T11:57:57;96045.97;;;18.28;67.79
9839;BME280;4958;48.150;11.506;2023-05-25T12:00:37;96041.09;;;18.38;67.85
9839;BME280;4958;48.150;11.506;2023-05-25T12:03:06;96032.69;;;18.36;67.60
9839;BME280;4958;48.150;11.506;2023-05-25T12:05:36;96046.78;;;18.28;68.70
9839;BME280;4958;48.150;11.506;2023-05-25T12:08:03;96042.28;;;18.17;68.54
9839;BME280;4958;48.150;11.506;2023-05-25T12:10:30;96040.75;;;18.28;68.86
9839;BME280;4958;48.150;11.506;2023-05-25T12:13:00;96031.63;;;18.44;68.80
9839;BME280;4958;48.150;11.506;2023-05-25T12:15:32;96030.31;;;18.78;67.96
9839;BME280;4958;48.150;11.506;2023-05-25T12:18:01;96033.47;;;19.05;66.59
9839;BME280;4958;48.150;11.506;2023-05-25T12:20:28;96027.06;;;19.19;65.40
9839;BME280;4958;48.150;11.506;2023-05-25T12:22:54;96031.47;;;19.37;64.95
9839;BME280;4958;48.150;11.506;2023-05-25T12:25:21;96037.06;;;19.22;63.81
9839;BME280;4958;48.150;11.506;2023-05-25T12:27:48;96034.22;;;19.60;64.54
9839;BME280;4958;48.150;11.506;2023-05-25T12:30:15;96039.84;;;19.87;63.36
9839;BME280;4958;48.150;11.506;2023-05-25T12:32:58;96039.25;;;19.85;62.09
9839;BME280;4958;48.150;11.506;2023-05-25T12:35:25;96032.06;;;20.22;61.14
9839;BME280;4958;48.150;11.506;2023-05-25T12:38:09;96031.22;;;20.40;60.69
9839;BME280;4958;48.150;11.506;2023-05-25T12:40:38;96026.31;;;20.43;60.30
9839;BME280;4958;48.150;11.506;2023-05-25T12:43:13;96030.53;;;20.56;59.84
9839;BME280;4958;48.150;11.506;2023-05-25T12:45:49;96030.97;;;20.88;58.95
9839;BME280;4958;48.150;11.506;2023-05-25T12:48:28;96032.97;;;21.09;57.61
9839;BME280;4958;48.150;11.506;2023-05-25T12:51:01;96018.63;;;21.12;57.55
9839;BME280;4958;48.150;11.506;2023-05-25T12:53:45;96016.25;;;21.10;58.31
9839;BME280;4958;48.150;11.506;2023-05-25T12:56:13;96022.78;;;20.96;60.98
9839;BME280;4958;48.150;11.506;2023-05-25T12:58:45;96013.56;;;20.70;58.52
9839;BME280;4958;48.150;11.506;2023-05-25T13:01:20;96022.47;;;20.57;58.62
9839;BME280;4958;48.150;11.506;2023-05-25T13:03:51;96020.03;;;20.79;58.42
9839;BME280;4958;48.150;11.506;2023-05-25T13:06:18;96022.63;;;21.02;58.11
9839;BME280;4958;48.150;11.506;2023-05-25T13:08:45;96022.50;;;21.09;56.89
9839;BME280;4958;48.150;11.506;2023-05-25T13:11:11;96012.59;;;21.11;57.41
9839;BME280;4958;48.150;11.506;2023-05-25T13:13:40;96011.13;;;21.03;56.81
9839;BME280;4958;48.150;11.506;2023-05-25T13:16:07;96004.28;;;21.02;56.46
9839;BME280;4958;48.150;11.506;2023-05-25T13:18:33;96008.94;;;21.12;56.24
9839;BME280;4958;48.150;11.506;2023-05-25T13:21:01;96002.13;;;20.99;56.17
9839;BME280;4958;48.150;11.506;2023-05-25T13:23:28;96001.19;;;21.17;56.43
9839;BME280;4958;48.150;11.506;2023-05-25T13:25:54;96003.38;;;21.09;55.74
9839;BME280;4958;48.150;11.506;2023-05-25T13:28:35;96000.16;;;21.18;56.86
9839;BME280;4958;48.150;11.506;2023-05-25T13:31:01;96005.88;;;21.15;56.98
9839;BME280;4958;48.150;11.506;2023-05-25T13:33:30;95997.47;;;21.01;56.87
9839;BME280;4958;48.150;11.506;2023-05-25T13:35:56;95999.06;;;21.02;56.26
9839;BME280;4958;48.150;11.506;2023-05-25T13:38:27;95998.78;;;21.27;56.54
9839;BME280;4958;48.150;11.506;2023-05-25T13:40:53;95993.84;;;21.43;55.50
9839;BME280;4958;48.150;11.506;2023-05-25T13:43:20;95993.03;;;21.42;55.52
9839;BME280;4958;48.150;11.506;2023-05-25T13:45:47;95998.72;;;21.51;55.44
9839;BME280;4958;48.150;11.506;2023-05-25T13:48:14;95996.16;;;21.56;55.81
9839;BME280;4958;48.150;11.506;2023-05-25T13:50:40;95991.44;;;21.69;56.27
9839;BME280;4958;48.150;11.506;2023-05-25T13:53:09;95989.44;;;21.77;55.14
9839;BME280;4958;48.150;11.506;2023-05-25T13:55:39;95988.00;;;21.52;55.32
9839;BME280;4958;48.150;11.506;2023-05-25T13:58:06;95989.88;;;21.57;55.75
9839;BME280;4958;48.150;11.506;2023-05-25T14:00:33;95991.22;;;21.71;55.29
9839;BME280;4958;48.150;11.506;2023-05-25T14:03:00;95991.59;;;21.80;55.24
9839;BME280;4958;48.150;11.506;2023-05-25T14:05:27;95988.13;;;21.74;55.38
9839;BME280;4958;48.150;11.506;2023-05-25T14:07:54;95981.13;;;21.80;56.36
9839;BME280;4958;48.150;11.506;2023-05-25T14:10:22;95982.88;;;21.91;55.45
9839;BME280;4958;48.150;11.506;2023-05-25T14:12:56;95985.38;;;22.14;56.56
9839;BME280;4958;48.150;11.506;2023-05-25T14:15:25;95981.31;;;22.23;53.87
9839;BME280;4958;48.150;11.506;2023-05-25T14:17:52;95977.19;;;22.27;54.46
9839;BME280;4958;48.150;11.506;2023-05-25T14:20:18;95974.81;;;22.26;54.40
9839;BME280;4958;48.150;11.506;2023-05-25T14:22:49;95974.56;;;22.27;54.03
9839;BME280;4958;48.150;11.506;2023-05-25T14:25:16;95974.63;;;22.16;54.10
9839;BME280;4958;48.150;11.506;2023-05-25T14:27:43;95970.34;;;22.26;55.46
9839;BME280;4958;48.150;11.506;2023-05-25T14:30:18;95982.34;;;22.39;54.46
9839;BME280;4958;48.150;11.506;2023-05-25T14:32:50;95971.34;;;22.42;54.77